sensor_id;sensor_type;location;lat;lon;timestamp;temperature;humidity
14893;DHT22;7538;53.626;9.906;2022-11-20T00:00:39;3.40;99.90
14893;DHT22;7538;53.626;9.906;2022-11-20T00:03:06;3.40;99.90
14893;DHT22;7538;53.626;9.906;2022-11-20T00:05:32;3.40;99.90
14893;DHT22;7538;53.626;9.906;2022-11-20T00:08:01;3.40;99.90
14893;DHT22;7538;53.626;9.906;2022-11-20T00:10:28;3.40;99.90
14893;DHT22;7538;53.626;9.906;2022-11-20T00:12:55;3.40;99.90
14893;DHT22;7538;53.626;9.906;2022-11-20T00:15:22;3.40;99.90
14893;DHT22;7538;53.626;9.906;2022-11-20T00:17:48;3.40;99.90
14893;DHT22;7538;53.626;9.906;2022-11-20T00:20:15;3.40;99.90
14893;DHT22;7538;53.626;9.906;2022-11-20T00:22:42;3.30;99.90
14893;DHT22;7538;53.626;9.906;2022-11-20T00:25:10;3.40;99.90
14893;DHT22;7538;53.626;9.906;2022-11-20T00:27:37;3.30;99.90
14893;DHT22;7538;53.626;9.906;2022-11-20T00:30:06;3.30;99.90
14893;DHT22;7538;53.626;9.906;2022-11-20T00:32:34;3.30;99.90
14893;DHT22;7538;53.626;9.906;2022-11-20T00:35:01;3.30;99.90
14893;DHT22;7538;53.626;9.906;2022-11-20T00:37:28;3.30;99.90
14893;DHT22;7538;53.626;9.906;2022-11-20T00:39:55;3.30;99.90
14893;DHT22;7538;53.626;9.906;2022-11-20T00:42:23;3.30;99.90
14893;DHT22;7538;53.626;9.906;2022-11-20T00:44:50;3.30;99.90
14893;DHT22;7538;53.626;9.906;2022-11-20T00:47:16;3.30;99.90
14893;DHT22;7538;53.626;9.906;2022-11-20T00:49:43;3.30;99.90
14893;DHT22;7538;53.626;9.906;2022-11-20T00:52:10;3.30;99.90
14893;DHT22;7538;53.626;9.906;2022-11-20T00:54:37;3.30;99.90
14893;DHT22;7538;53.626;9.906;2022-11-20T00:57:03;3.30;99.90
14893;DHT22;7538;53.626;9.906;2022-11-20T00:59:32;3.30;99.90
14893;DHT22;7538;53.626;9.906;2022-11-20T01:01:58;3.40;99.90
14893;DHT22;7538;53.626;9.906;2022-11-20T01:04:25;3.30;99.90
14893;DHT22;7538;53.626;9.906;2022-11-20T01:06:52;3.20;99.90
14893;DHT22;7538;53.626;9.906;2022-11-20T01:09:19;3.20;99.90
14893;DHT22;7538;53.626;9.906;2022-11-20T01:11:46;3.20;99.90
14893;DHT22;7538;53.626;9.906;2022-11-20T01:14:15;3.20;99.90
14893;DHT22;7538;53.626;9.906;2022-11-20T01:16:45;3.20;99.90
14893;DHT22;7538;53.626;9.906;2022-11-20T01:19:14;3.20;99.90
14893;DHT22;7538;53.626;9.906;2022-11-20T01:21:44;3.30;99.90
14893;DHT22;7538;53.626;9.906;2022-11-20T01:24:13;3.20;99.90
14893;DHT22;7538;53.626;9.906;2022-11-20T01:26:41;3.20;99.90
14893;DHT22;7538;53.626;9.906;2022-11-20T01:29:13;3.20;99.90
14893;DHT22;7538;53.626;9.906;2022-11-20T01:31:40;3.20;99.90
14893;DHT22;7538;53.626;9.906;2022-11-20T01:34:10;3.20;99.90
14893;DHT22;7538;53.626;9.906;2022-11-20T01:36:38;3.10;99.90
14893;DHT22;7538;53.626;9.906;2022-11-20T01:39:06;3.10;99.90
14893;DHT22;7538;53.626;9.906;2022-11-20T01:41:34;3.10;99.90
14893;DHT22;7538;53.626;9.906;2022-11-20T01:44:20;3.20;99.90
14893;DHT22;7538;53.626;9.906;2022-11-20T01:46:53;3.20;99.90
14893;DHT22;7538;53.626;9.906;2022-11-20T01:49:26;3.10;99.90
14893;DHT22;7538;53.626;9.906;2022-11-20T01:51:57;3.10;99.90
14893;DHT22;7538;53.626;9.906;2022-11-20T01:54:29;3.10;99.90
14893;DHT22;7538;53.626;9.906;2022-11-20T01:56:59;3.10;99.90
14893;DHT22;7538;53.626;9.906;2022-11-20T01:59:28;3.00;99.90
14893;DHT22;7538;53.626;9.906;2022-11-20T02:01:55;3.10;99.90
14893;DHT22;7538;53.626;9.906;2022-11-20T02:04:24;3.00;99.90
14893;DHT22;7538;53.626;9.906;2022-11-20T02:06:57;3.10;99.90
14893;DHT22;7538;53.626;9.906;2022-11-20T02:09:26;3.00;99.90
14893;DHT22;7538;53.626;9.906;2022-11-20T02:11:53;3.00;99.90
14893;DHT22;7538;53.626;9.906;2022-11-20T02:14:21;3.00;99.90
14893;DHT22;7538;53.626;9.906;2022-11-20T02:16:48;3.00;99.90
14893;DHT22;7538;53.626;9.906;2022-11-20T02:19:22;3.00;99.90
14893;DHT22;7538;53.626;9.906;2022-11-20T02:21:59;3.00;99.90
14893;DHT22;7538;53.626;9.906;2022-11-20T02:24:28;3.00;99.90
14893;DHT22;7538;53.626;9.906;2022-11-20T02:26:58;3.00;99.90
14893;DHT22;7538;53.626;9.906;2022-11-20T02:29:35;3.10;99.90
14893;DHT22;7538;53.626;9.906;2022-11-20T02:32:04;3.10;99.90
14893;DHT22;7538;53.626;9.906;2022-11-20T02:34:31;3.10;99.90
14893;DHT22;7538;53.626;9.906;2022-11-20T02:36:58;3.10;99.90
14893;DHT22;7538;53.626;9.906;2022-11-20T02:39:29;3.10;99.90
14893;DHT22;7538;53.626;9.906;2022-11-20T02:41:56;3.10;99.90
14893;DHT22;7538;53.626;9.906;2022-11-20T02:44:23;3.10;99.90
14893;DHT22;7538;53.626;9.906;2022-11-20T02:46:50;3.10;99.90
14893;DHT22;7538;53.626;9.906;2022-11-20T02:49:17;3.10;99.90
14893;DHT22;7538;53.626;9.906;2022-11-20T02:51:44;5.20;99.90
14893;DHT22;7538;53.626;9.906;2022-11-20T02:54:11;3.00;99.90
14893;DHT22;7538;53.626;9.906;2022-11-20T02:56:39;3.10;99.90
14893;DHT22;7538;53.626;9.906;2022-11-20T02:59:06;3.00;99.90
14893;DHT22;7538;53.626;9.906;2022-11-20T03:01:33;3.00;99.90
14893;DHT22;7538;53.626;9.906;2022-11-20T03:04:00;3.00;99.90
14893;DHT22;7538;53.626;9.906;2022-11-20T03:06:27;3.10;99.90
14893;DHT22;7538;53.626;9.906;2022-11-20T03:08:54;3.10;99.90
14893;DHT22;7538;53.626;9.906;2022-11-20T03:11:20;3.00;99.90
14893;DHT22;7538;53.626;9.906;2022-11-20T03:13:49;3.00;99.90
14893;DHT22;7538;53.626;9.906;2022-11-20T03:16:17;3.00;99.90
14893;DHT22;7538;53.626;9.906;2022-11-20T03:18:45;3.00;99.90
14893;DHT22;7538;53.626;9.906;2022-11-20T03:21:12;3.00;99.90
14893;DHT22;7538;53.626;9.906;2022-11-20T03:23:40;3.10;99.90
14893;DHT22;7538;53.626;9.906;2022-11-20T03:26:12;3.00;99.90
14893;DHT22;7538;53.626;9.906;2022-11-20T03:28:39;3.00;99.90
14893;DHT22;7538;53.626;9.906;2022-11-20T03:31:10;3.00;99.90
14893;DHT22;7538;53.626;9.906;2022-11-20T03:33:37;3.10;99.90
14893;DHT22;7538;53.626;9.906;2022-11-20T03:36:06;3.00;99.90
14893;DHT22;7538;53.626;9.906;2022-11-20T03:38:33;3.00;99.90
14893;DHT22;7538;53.626;9.906;2022-11-20T03:41:00;3.00;99.90
14893;DHT22;7538;53.626;9.906;2022-11-20T03:43:28;3.00;99.90
14893;DHT22;7538;53.626;9.906;2022-11-20T03:45:55;3.00;99.90
14893;DHT22;7538;53.626;9.906;2022-11-20T03:48:23;3.00;99.90
14893;DHT22;7538;53.626;9.906;2022-11-20T03:50:49;3.00;99.90
14893;DHT22;7538;53.626;9.906;2022-11-20T03:53:17;3.00;99.90
14893;DHT22;7538;53.626;9.906;2022-11-20T03:55:44;3.00;99.90
14893;DHT22;7538;53.626;9.906;2022-11-20T03:58:10;3.00;99.90
14893;DHT22;7538;53.626;9.906;2022-11-20T04:00:39;3.00;99.90
14893;DHT22;7538;53.626;9.906;2022-11-20T04:03:05;3.00;99.90
14893;DHT22;7538;53.626;9.906;2022-11-20T04:05:34;3.00;99.90
14893;DHT22;7538;53.626;9.906;2022-11-20T04:08:01;3.10;99.90
14893;DHT22;7538;53.626;9.906;2022-11-20T04:10:28;3.00;99.90
14893;DHT22;7538;53.626;9.906;2022-11-20T04:12:55;3.00;99.90
14893;DHT22;7538;53.626;9.906;2022-11-20T04:15:22;3.00;99.90
14893;DHT22;7538;53.626;9.906;2022-11-20T04:17:48;3.00;99.90
14893;DHT22;7538;53.626;9.906;2022-11-20T04:20:15;3.00;99.90
14893;DHT22;7538;53.626;9.906;2022-11-20T04:22:43;3.00;99.90
14893;DHT22;7538;53.626;9.906;2022-11-20T04:25:10;3.00;99.90
14893;DHT22;7538;53.626;9.906;2022-11-20T04:27:37;3.00;99.90
14893;DHT22;7538;53.626;9.906;2022-11-20T04:30:05;3.00;99.90
14893;DHT22;7538;53.626;9.906;2022-11-20T04:32:32;3.00;99.90
14893;DHT22;7538;53.626;9.906;2022-11-20T04:34:58;3.00;99.90
14893;DHT22;7538;53.626;9.906;2022-11-20T04:37:25;3.00;99.90
14893;DHT22;7538;53.626;9.906;2022-11-20T04:39:53;3.00;99.90
14893;DHT22;7538;53.626;9.906;2022-11-20T04:42:20;3.00;99.90
14893;DHT22;7538;53.626;9.906;2022-11-20T04:44:56;3.00;99.90
14893;DHT22;7538;53.626;9.906;2022-11-20T04:47:23;3.00;99.90
14893;DHT22;7538;53.626;9.906;2022-11-20T04:49:50;3.10;99.90
14893;DHT22;7538;53.626;9.906;2022-11-20T04:52:17;3.00;99.90
14893;DHT22;7538;53.626;9.906;2022-11-20T04:54:44;3.00;99.90
14893;DHT22;7538;53.626;9.906;2022-11-20T04:57:14;3.00;99.90
14893;DHT22;7538;53.626;9.906;2022-11-20T04:59:41;3.00;99.90
14893;DHT22;7538;53.626;9.906;2022-11-20T05:02:08;3.00;99.90
14893;DHT22;7538;53.626;9.906;2022-11-20T05:04:35;3.00;99.90
14893;DHT22;7538;53.626;9.906;2022-11-20T05:07:02;3.00;99.90
14893;DHT22;7538;53.626;9.906;2022-11-20T05:09:29;3.00;99.90
14893;DHT22;7538;53.626;9.906;2022-11-20T05:11:56;3.00;99.90
14893;DHT22;7538;53.626;9.906;2022-11-20T05:14:24;3.00;99.90
14893;DHT22;7538;53.626;9.906;2022-11-20T05:16:51;3.10;99.90
14893;DHT22;7538;53.626;9.906;2022-11-20T05:19:18;3.10;99.90
14893;DHT22;7538;53.626;9.906;2022-11-20T05:21:44;3.10;99.90
14893;DHT22;7538;53.626;9.906;2022-11-20T05:24:11;3.10;99.90
14893;DHT22;7538;53.626;9.906;2022-11-20T05:26:38;3.10;99.90
14893;DHT22;7538;53.626;9.906;2022-11-20T05:29:05;3.10;99.90
14893;DHT22;7538;53.626;9.906;2022-11-20T05:31:33;3.10;99.90
14893;DHT22;7538;53.626;9.906;2022-11-20T05:34:01;3.00;99.90
14893;DHT22;7538;53.626;9.906;2022-11-20T05:36:28;3.00;99.90
14893;DHT22;7538;53.626;9.906;2022-11-20T05:38:56;3.00;99.90
14893;DHT22;7538;53.626;9.906;2022-11-20T05:41:23;3.00;99.90
14893;DHT22;7538;53.626;9.906;2022-11-20T05:43:50;3.00;99.90
14893;DHT22;7538;53.626;9.906;2022-11-20T05:46:19;3.00;99.90
14893;DHT22;7538;53.626;9.906;2022-11-20T05:48:47;2.90;99.90
14893;DHT22;7538;53.626;9.906;2022-11-20T05:51:16;0.90;99.90
14893;DHT22;7538;53.626;9.906;2022-11-20T05:53:43;3.00;99.90
14893;DHT22;7538;53.626;9.906;2022-11-20T05:56:12;3.10;99.90
14893;DHT22;7538;53.626;9.906;2022-11-20T05:58:40;3.00;99.90
14893;DHT22;7538;53.626;9.906;2022-11-20T06:01:09;2.90;99.90
14893;DHT22;7538;53.626;9.906;2022-11-20T06:03:36;2.90;99.90
14893;DHT22;7538;53.626;9.906;2022-11-20T06:06:06;2.90;99.90
14893;DHT22;7538;53.626;9.906;2022-11-20T06:08:33;2.90;99.90
14893;DHT22;7538;53.626;9.906;2022-11-20T06:11:03;2.80;99.90
14893;DHT22;7538;53.626;9.906;2022-11-20T06:13:30;2.80;99.90
14893;DHT22;7538;53.626;9.906;2022-11-20T06:15:57;2.80;99.90
14893;DHT22;7538;53.626;9.906;2022-11-20T06:18:26;2.80;99.90
14893;DHT22;7538;53.626;9.906;2022-11-20T06:21:00;2.80;99.90
14893;DHT22;7538;53.626;9.906;2022-11-20T06:23:29;2.80;99.90
14893;DHT22;7538;53.626;9.906;2022-11-20T06:25:56;2.80;99.90
14893;DHT22;7538;53.626;9.906;2022-11-20T06:28:23;2.80;99.90
14893;DHT22;7538;53.626;9.906;2022-11-20T06:30:50;2.80;99.90
14893;DHT22;7538;53.626;9.906;2022-11-20T06:33:17;2.80;99.90
14893;DHT22;7538;53.626;9.906;2022-11-20T06:35:43;2.70;99.90
14893;DHT22;7538;53.626;9.906;2022-11-20T06:38:10;2.70;99.90
14893;DHT22;7538;53.626;9.906;2022-11-20T06:40:41;2.70;99.90
14893;DHT22;7538;53.626;9.906;2022-11-20T06:43:08;2.60;99.90
14893;DHT22;7538;53.626;9.906;2022-11-20T06:45:35;2.60;99.90
14893;DHT22;7538;53.626;9.906;2022-11-20T06:48:02;2.50;99.90
14893;DHT22;7538;53.626;9.906;2022-11-20T06:50:29;2.50;99.90
14893;DHT22;7538;53.626;9.906;2022-11-20T06:52:58;2.50;99.90
14893;DHT22;7538;53.626;9.906;2022-11-20T06:55:26;2.40;99.90
14893;DHT22;7538;53.626;9.906;2022-11-20T06:57:54;2.40;99.90
14893;DHT22;7538;53.626;9.906;2022-11-20T07:00:21;2.40;99.90
14893;DHT22;7538;53.626;9.906;2022-11-20T07:02:48;2.30;99.90
14893;DHT22;7538;53.626;9.906;2022-11-20T07:05:15;2.30;99.90
14893;DHT22;7538;53.626;9.906;2022-11-20T07:07:42;2.30;99.90
14893;DHT22;7538;53.626;9.906;2022-11-20T07:10:09;2.30;99.90
14893;DHT22;7538;53.626;9.906;2022-11-20T07:12:36;2.30;99.90
14893;DHT22;7538;53.626;9.906;2022-11-20T07:15:06;2.30;99.90
14893;DHT22;7538;53.626;9.906;2022-11-20T07:17:33;2.30;99.90
14893;DHT22;7538;53.626;9.906;2022-11-20T07:19:59;2.40;99.90
14893;DHT22;7538;53.626;9.906;2022-11-20T07:22:26;2.40;99.90
14893;DHT22;7538;53.626;9.906;2022-11-20T07:24:53;2.50;99.90
14893;DHT22;7538;53.626;9.906;2022-11-20T07:27:20;2.60;99.90
14893;DHT22;7538;53.626;9.906;2022-11-20T07:29:47;2.60;99.90
14893;DHT22;7538;53.626;9.906;2022-11-20T07:32:15;2.60;99.90
14893;DHT22;7538;53.626;9.906;2022-11-20T07:34:42;2.70;99.90
14893;DHT22;7538;53.626;9.906;2022-11-20T07:37:08;2.70;99.90
14893;DHT22;7538;53.626;9.906;2022-11-20T07:39:35;2.70;99.90
14893;DHT22;7538;53.626;9.906;2022-11-20T07:42:02;2.80;99.90
14893;DHT22;7538;53.626;9.906;2022-11-20T07:44:29;2.80;99.90
14893;DHT22;7538;53.626;9.906;2022-11-20T07:46:56;2.90;99.90
14893;DHT22;7538;53.626;9.906;2022-11-20T07:49:24;2.90;99.90
14893;DHT22;7538;53.626;9.906;2022-11-20T07:51:51;2.90;99.90
14893;DHT22;7538;53.626;9.906;2022-11-20T07:54:19;2.80;99.90
14893;DHT22;7538;53.626;9.906;2022-11-20T07:56:46;2.90;99.90
14893;DHT22;7538;53.626;9.906;2022-11-20T07:59:13;2.80;99.90
14893;DHT22;7538;53.626;9.906;2022-11-20T08:01:40;2.90;99.90
14893;DHT22;7538;53.626;9.906;2022-11-20T08:04:06;3.00;99.90
14893;DHT22;7538;53.626;9.906;2022-11-20T08:06:35;3.00;99.90
14893;DHT22;7538;53.626;9.906;2022-11-20T08:09:02;3.10;99.90
14893;DHT22;7538;53.626;9.906;2022-11-20T08:11:28;3.20;99.90
14893;DHT22;7538;53.626;9.906;2022-11-20T08:14:13;3.20;99.90
14893;DHT22;7538;53.626;9.906;2022-11-20T08:16:40;3.20;99.90
14893;DHT22;7538;53.626;9.906;2022-11-20T08:19:09;3.30;99.90
14893;DHT22;7538;53.626;9.906;2022-11-20T08:21:37;3.30;99.90
14893;DHT22;7538;53.626;9.906;2022-11-20T08:24:05;4.50;99.90
14893;DHT22;7538;53.626;9.906;2022-11-20T08:26:32;3.40;99.90
14893;DHT22;7538;53.626;9.906;2022-11-20T08:28:59;3.40;99.90
14893;DHT22;7538;53.626;9.906;2022-11-20T08:31:26;3.40;99.90
14893;DHT22;7538;53.626;9.906;2022-11-20T08:33:53;3.40;99.90
14893;DHT22;7538;53.626;9.906;2022-11-20T08:36:22;3.50;99.90
14893;DHT22;7538;53.626;9.906;2022-11-20T08:38:52;3.50;99.90
14893;DHT22;7538;53.626;9.906;2022-11-20T08:41:19;3.60;99.90
14893;DHT22;7538;53.626;9.906;2022-11-20T08:43:55;3.70;99.90
14893;DHT22;7538;53.626;9.906;2022-11-20T08:46:23;3.80;99.90
14893;DHT22;7538;53.626;9.906;2022-11-20T08:48:50;3.80;99.90
14893;DHT22;7538;53.626;9.906;2022-11-20T08:51:18;3.90;99.90
14893;DHT22;7538;53.626;9.906;2022-11-20T08:53:45;3.90;99.90
14893;DHT22;7538;53.626;9.906;2022-11-20T08:56:15;3.90;99.90
14893;DHT22;7538;53.626;9.906;2022-11-20T08:58:42;3.90;99.90
14893;DHT22;7538;53.626;9.906;2022-11-20T09:01:09;3.90;99.90
14893;DHT22;7538;53.626;9.906;2022-11-20T09:03:36;3.90;99.90
14893;DHT22;7538;53.626;9.906;2022-11-20T09:06:05;3.90;99.90
14893;DHT22;7538;53.626;9.906;2022-11-20T09:08:32;3.90;99.90
14893;DHT22;7538;53.626;9.906;2022-11-20T09:10:59;4.60;99.90
14893;DHT22;7538;53.626;9.906;2022-11-20T09:13:28;4.00;99.90
14893;DHT22;7538;53.626;9.906;2022-11-20T09:15:55;4.00;99.90
14893;DHT22;7538;53.626;9.906;2022-11-20T09:18:23;4.10;99.90
14893;DHT22;7538;53.626;9.906;2022-11-20T09:20:50;4.00;99.90
14893;DHT22;7538;53.626;9.906;2022-11-20T09:23:17;4.00;99.90
14893;DHT22;7538;53.626;9.906;2022-11-20T09:25:44;3.90;99.90
14893;DHT22;7538;53.626;9.906;2022-11-20T09:28:11;3.90;99.90
14893;DHT22;7538;53.626;9.906;2022-11-20T09:30:40;3.90;99.90
14893;DHT22;7538;53.626;9.906;2022-11-20T09:33:06;3.90;99.90
14893;DHT22;7538;53.626;9.906;2022-11-20T09:35:33;3.90;99.90
14893;DHT22;7538;53.626;9.906;2022-11-20T09:38:04;4.00;99.90
14893;DHT22;7538;53.626;9.906;2022-11-20T09:40:32;4.00;99.90
14893;DHT22;7538;53.626;9.906;2022-11-20T09:43:04;4.10;99.90
14893;DHT22;7538;53.626;9.906;2022-11-20T09:45:56;4.10;99.90
14893;DHT22;7538;53.626;9.906;2022-11-20T09:48:47;4.00;99.90
14893;DHT22;7538;53.626;9.906;2022-11-20T09:51:28;4.00;99.90
14893;DHT22;7538;53.626;9.906;2022-11-20T09:54:06;4.20;99.90
14893;DHT22;7538;53.626;9.906;2022-11-20T09:56:37;4.40;99.90
14893;DHT22;7538;53.626;9.906;2022-11-20T09:59:07;4.60;99.90
14893;DHT22;7538;53.626;9.906;2022-11-20T10:01:39;7.30;99.90
14893;DHT22;7538;53.626;9.906;2022-11-20T10:04:12;4.70;99.90
14893;DHT22;7538;53.626;9.906;2022-11-20T10:06:44;4.90;99.90
14893;DHT22;7538;53.626;9.906;2022-11-20T10:09:21;5.10;99.90
14893;DHT22;7538;53.626;9.906;2022-11-20T10:11:59;5.30;99.90
14893;DHT22;7538;53.626;9.906;2022-11-20T10:14:37;5.40;99.90
14893;DHT22;7538;53.626;9.906;2022-11-20T10:17:16;5.40;99.90
14893;DHT22;7538;53.626;9.906;2022-11-20T10:19:59;5.40;99.90
14893;DHT22;7538;53.626;9.906;2022-11-20T10:22:37;5.30;99.90
14893;DHT22;7538;53.626;9.906;2022-11-20T10:25:13;5.20;99.90
14893;DHT22;7538;53.626;9.906;2022-11-20T10:28:10;4.80;99.90
14893;DHT22;7538;53.626;9.906;2022-11-20T10:30:42;4.80;99.90
14893;DHT22;7538;53.626;9.906;2022-11-20T10:33:16;4.70;99.90
14893;DHT22;7538;53.626;9.906;2022-11-20T10:35:45;4.70;99.90
14893;DHT22;7538;53.626;9.906;2022-11-20T10:38:21;6.00;99.90
14893;DHT22;7538;53.626;9.906;2022-11-20T10:40:50;4.80;99.90
14893;DHT22;7538;53.626;9.906;2022-11-20T10:43:21;4.70;99.90
14893;DHT22;7538;53.626;9.906;2022-11-20T10:45:55;4.60;99.90
14893;DHT22;7538;53.626;9.906;2022-11-20T10:48:25;4.50;99.90
14893;DHT22;7538;53.626;9.906;2022-11-20T10:51:02;4.40;99.90
14893;DHT22;7538;53.626;9.906;2022-11-20T10:53:45;4.70;99.90
14893;DHT22;7538;53.626;9.906;2022-11-20T10:56:19;4.90;99.90
14893;DHT22;7538;53.626;9.906;2022-11-20T10:58:58;4.80;99.90
14893;DHT22;7538;53.626;9.906;2022-11-20T11:01:27;4.90;99.90
14893;DHT22;7538;53.626;9.906;2022-11-20T11:03:55;5.00;99.90
14893;DHT22;7538;53.626;9.906;2022-11-20T11:06:29;4.80;99.90
14893;DHT22;7538;53.626;9.906;2022-11-20T11:09:01;4.80;99.90
14893;DHT22;7538;53.626;9.906;2022-11-20T11:11:30;4.80;99.90
14893;DHT22;7538;53.626;9.906;2022-11-20T11:14:05;4.70;99.90
14893;DHT22;7538;53.626;9.906;2022-11-20T11:16:32;4.90;99.90
14893;DHT22;7538;53.626;9.906;2022-11-20T11:19:12;4.90;99.90
14893;DHT22;7538;53.626;9.906;2022-11-20T11:21:46;5.00;99.90
14893;DHT22;7538;53.626;9.906;2022-11-20T11:24:20;4.90;99.90
14893;DHT22;7538;53.626;9.906;2022-11-20T11:26:55;4.70;99.90
14893;DHT22;7538;53.626;9.906;2022-11-20T11:29:22;4.60;99.90
14893;DHT22;7538;53.626;9.906;2022-11-20T11:32:03;4.50;99.90
14893;DHT22;7538;53.626;9.906;2022-11-20T11:34:32;4.60;99.90
14893;DHT22;7538;53.626;9.906;2022-11-20T11:37:00;4.70;99.90
14893;DHT22;7538;53.626;9.906;2022-11-20T11:39:30;4.90;99.90
14893;DHT22;7538;53.626;9.906;2022-11-20T11:41:58;5.00;99.90
14893;DHT22;7538;53.626;9.906;2022-11-20T11:44:30;4.90;99.90
14893;DHT22;7538;53.626;9.906;2022-11-20T11:47:22;5.00;99.90
14893;DHT22;7538;53.626;9.906;2022-11-20T11:50:15;5.00;99.90
14893;DHT22;7538;53.626;9.906;2022-11-20T11:52:45;5.10;99.90
14893;DHT22;7538;53.626;9.906;2022-11-20T11:55:17;5.20;99.90
14893;DHT22;7538;53.626;9.906;2022-11-20T11:57:49;5.20;99.90
14893;DHT22;7538;53.626;9.906;2022-11-20T12:00:20;5.20;99.90
14893;DHT22;7538;53.626;9.906;2022-11-20T12:02:56;5.10;99.90
14893;DHT22;7538;53.626;9.906;2022-11-20T12:05:28;5.10;99.90
14893;DHT22;7538;53.626;9.906;2022-11-20T12:07:58;5.20;99.90
14893;DHT22;7538;53.626;9.906;2022-11-20T12:10:39;5.20;99.90
14893;DHT22;7538;53.626;9.906;2022-11-20T12:13:20;5.10;99.90
14893;DHT22;7538;53.626;9.906;2022-11-20T12:15:47;5.10;99.90
14893;DHT22;7538;53.626;9.906;2022-11-20T12:18:15;5.20;99.90
14893;DHT22;7538;53.626;9.906;2022-11-20T12:21:02;5.20;99.90
14893;DHT22;7538;53.626;9.906;2022-11-20T12:23:38;5.30;99.90
14893;DHT22;7538;53.626;9.906;2022-11-20T12:26:15;5.30;99.90
14893;DHT22;7538;53.626;9.906;2022-11-20T12:28:55;5.30;99.90
14893;DHT22;7538;53.626;9.906;2022-11-20T12:31:35;5.40;99.90
14893;DHT22;7538;53.626;9.906;2022-11-20T12:34:19;5.40;99.90
14893;DHT22;7538;53.626;9.906;2022-11-20T12:36:54;5.20;99.90
14893;DHT22;7538;53.626;9.906;2022-11-20T12:39:35;5.10;99.90
14893;DHT22;7538;53.626;9.906;2022-11-20T12:42:13;5.00;99.90
14893;DHT22;7538;53.626;9.906;2022-11-20T12:45:16;5.00;99.90
14893;DHT22;7538;53.626;9.906;2022-11-20T12:48:09;5.10;99.90
14893;DHT22;7538;53.626;9.906;2022-11-20T12:50:46;5.20;99.90
14893;DHT22;7538;53.626;9.906;2022-11-20T12:53:25;5.30;99.90
14893;DHT22;7538;53.626;9.906;2022-11-20T12:55:58;5.50;99.90
14893;DHT22;7538;53.626;9.906;2022-11-20T12:58:31;5.60;99.90
14893;DHT22;7538;53.626;9.906;2022-11-20T13:01:07;5.70;99.90
14893;DHT22;7538;53.626;9.906;2022-11-20T13:03:57;9.30;99.90
14893;DHT22;7538;53.626;9.906;2022-11-20T13:06:33;5.80;99.90
14893;DHT22;7538;53.626;9.906;2022-11-20T13:09:02;5.90;99.90
14893;DHT22;7538;53.626;9.906;2022-11-20T13:11:34;5.80;99.90
14893;DHT22;7538;53.626;9.906;2022-11-20T13:14:18;5.80;99.90
14893;DHT22;7538;53.626;9.906;2022-11-20T13:16:50;5.90;99.90
14893;DHT22;7538;53.626;9.906;2022-11-20T13:19:20;5.90;99.90
14893;DHT22;7538;53.626;9.906;2022-11-20T13:21:49;5.90;99.90
14893;DHT22;7538;53.626;9.906;2022-11-20T13:24:23;5.90;99.90
14893;DHT22;7538;53.626;9.906;2022-11-20T13:27:05;5.80;99.90
14893;DHT22;7538;53.626;9.906;2022-11-20T13:29:45;5.60;99.90
14893;DHT22;7538;53.626;9.906;2022-11-20T13:32:16;5.60;99.90
14893;DHT22;7538;53.626;9.906;2022-11-20T13:34:55;5.50;99.90
14893;DHT22;7538;53.626;9.906;2022-11-20T13:37:28;5.50;99.90
14893;DHT22;7538;53.626;9.906;2022-11-20T13:40:12;5.50;99.90
14893;DHT22;7538;53.626;9.906;2022-11-20T13:42:44;5.40;99.90
14893;DHT22;7538;53.626;9.906;2022-11-20T13:45:22;5.40;99.90
14893;DHT22;7538;53.626;9.906;2022-11-20T13:47:51;5.30;99.90
14893;DHT22;7538;53.626;9.906;2022-11-20T13:50:19;5.30;99.90
14893;DHT22;7538;53.626;9.906;2022-11-20T13:52:52;5.20;99.90
14893;DHT22;7538;53.626;9.906;2022-11-20T13:55:31;5.20;99.90
14893;DHT22;7538;53.626;9.906;2022-11-20T13:58:17;5.20;99.90
14893;DHT22;7538;53.626;9.906;2022-11-20T14:00:51;5.10;99.90
14893;DHT22;7538;53.626;9.906;2022-11-20T14:03:21;5.20;99.90
14893;DHT22;7538;53.626;9.906;2022-11-20T14:05:52;5.20;99.90
14893;DHT22;7538;53.626;9.906;2022-11-20T14:08:26;5.20;99.90
14893;DHT22;7538;53.626;9.906;2022-11-20T14:11:06;5.20;99.90
14893;DHT22;7538;53.626;9.906;2022-11-20T14:13:39;5.10;99.90
14893;DHT22;7538;53.626;9.906;2022-11-20T14:16:06;5.10;99.90
14893;DHT22;7538;53.626;9.906;2022-11-20T14:18:32;5.10;99.90
14893;DHT22;7538;53.626;9.906;2022-11-20T14:21:00;5.10;99.90
14893;DHT22;7538;53.626;9.906;2022-11-20T14:23:28;5.00;99.90
14893;DHT22;7538;53.626;9.906;2022-11-20T14:25:55;5.00;99.90
14893;DHT22;7538;53.626;9.906;2022-11-20T14:28:27;4.90;99.90
14893;DHT22;7538;53.626;9.906;2022-11-20T14:30:55;4.90;99.90
14893;DHT22;7538;53.626;9.906;2022-11-20T14:33:23;2.00;99.90
14893;DHT22;7538;53.626;9.906;2022-11-20T14:35:52;4.70;99.90
14893;DHT22;7538;53.626;9.906;2022-11-20T14:38:23;4.70;99.90
14893;DHT22;7538;53.626;9.906;2022-11-20T14:40:50;4.60;99.90
14893;DHT22;7538;53.626;9.906;2022-11-20T14:43:21;4.60;99.90
14893;DHT22;7538;53.626;9.906;2022-11-20T14:45:55;4.60;99.90
14893;DHT22;7538;53.626;9.906;2022-11-20T14:48:28;4.50;99.90
14893;DHT22;7538;53.626;9.906;2022-11-20T14:50:56;4.40;99.90
14893;DHT22;7538;53.626;9.906;2022-11-20T14:53:23;4.30;99.90
14893;DHT22;7538;53.626;9.906;2022-11-20T14:55:59;4.30;99.90
14893;DHT22;7538;53.626;9.906;2022-11-20T14:58:28;4.30;99.90
14893;DHT22;7538;53.626;9.906;2022-11-20T15:00:58;4.20;99.90
14893;DHT22;7538;53.626;9.906;2022-11-20T15:03:31;4.20;99.90
14893;DHT22;7538;53.626;9.906;2022-11-20T15:05:59;4.20;99.90
14893;DHT22;7538;53.626;9.906;2022-11-20T15:08:26;4.00;99.90
14893;DHT22;7538;53.626;9.906;2022-11-20T15:10:54;4.00;99.90
14893;DHT22;7538;53.626;9.906;2022-11-20T15:13:26;3.90;99.90
14893;DHT22;7538;53.626;9.906;2022-11-20T15:15:57;3.90;99.90
14893;DHT22;7538;53.626;9.906;2022-11-20T15:18:28;3.90;99.90
14893;DHT22;7538;53.626;9.906;2022-11-20T15:20:57;3.90;99.90
14893;DHT22;7538;53.626;9.906;2022-11-20T15:23:25;4.00;99.90
14893;DHT22;7538;53.626;9.906;2022-11-20T15:25:52;4.00;99.90
14893;DHT22;7538;53.626;9.906;2022-11-20T15:28:21;4.10;99.90
14893;DHT22;7538;53.626;9.906;2022-11-20T15:30:49;4.10;99.90
14893;DHT22;7538;53.626;9.906;2022-11-20T15:33:18;4.10;99.90
14893;DHT22;7538;53.626;9.906;2022-11-20T15:35:45;4.10;99.90
14893;DHT22;7538;53.626;9.906;2022-11-20T15:38:12;7.70;99.90
14893;DHT22;7538;53.626;9.906;2022-11-20T15:40:38;4.00;99.90
14893;DHT22;7538;53.626;9.906;2022-11-20T15:43:05;4.10;99.90
14893;DHT22;7538;53.626;9.906;2022-11-20T15:45:37;4.10;99.90
14893;DHT22;7538;53.626;9.906;2022-11-20T15:48:08;4.10;99.90
14893;DHT22;7538;53.626;9.906;2022-11-20T15:50:41;7.40;99.90
14893;DHT22;7538;53.626;9.906;2022-11-20T15:53:10;8.00;99.90
14893;DHT22;7538;53.626;9.906;2022-11-20T15:55:37;4.20;99.90
14893;DHT22;7538;53.626;9.906;2022-11-20T15:58:04;4.30;99.90
14893;DHT22;7538;53.626;9.906;2022-11-20T16:00:31;4.30;99.90
14893;DHT22;7538;53.626;9.906;2022-11-20T16:02:57;4.30;99.90
14893;DHT22;7538;53.626;9.906;2022-11-20T16:05:27;4.30;99.90
14893;DHT22;7538;53.626;9.906;2022-11-20T16:07:56;4.30;99.90
14893;DHT22;7538;53.626;9.906;2022-11-20T16:10:23;4.30;99.90
14893;DHT22;7538;53.626;9.906;2022-11-20T16:12:50;4.30;99.90
14893;DHT22;7538;53.626;9.906;2022-11-20T16:15:34;4.30;99.90
14893;DHT22;7538;53.626;9.906;2022-11-20T16:18:15;5.70;99.90
14893;DHT22;7538;53.626;9.906;2022-11-20T16:20:42;4.30;99.90